Artesia Wells, Texas
Current Conditions -  °F | °C
As of 11:53 PM on Wednesday 22 Oct 2014 (Local Time) from KCOT Reporting Station
Clear Clear  
Wind Chill: 75°   Ceiling: Unl
Heat Index: 75°   Visibility: 10mi
Dew Point: 61°   Wind: 7mph
Humidity: 62%   Direction: 150°SSE
Pressure: 30.08"   Gusts: NA
Location:  28.28°N, 99.29°W
Report Text: KCOT 230453Z AUTO 15006KT 10SM CLR 24/16 A3008 RMK AO2 SLP177 T02390161
Loading
Personal Weather Stations






























Interactive Weather Map
Tropical Storm Tracking
New forecast layout! Learn more

10-Day Weather Forecast

Advertisements
Track Severe Weather on mobile